sensor_id;sensor_type;location;lat;lon;timestamp;temperature;humidity
6865;DHT22;3471;49.678;8.388;2024-03-29T00:00:42;8.60;99.90
6865;DHT22;3471;49.678;8.388;2024-03-29T00:03:10;8.60;99.90
6865;DHT22;3471;49.678;8.388;2024-03-29T00:05:37;8.60;99.90
6865;DHT22;3471;49.678;8.388;2024-03-29T00:08:05;8.60;99.90
6865;DHT22;3471;49.678;8.388;2024-03-29T00:10:31;8.50;99.90
6865;DHT22;3471;49.678;8.388;2024-03-29T00:12:59;8.50;99.90
6865;DHT22;3471;49.678;8.388;2024-03-29T00:15:24;8.50;99.90
6865;DHT22;3471;49.678;8.388;2024-03-29T00:17:50;8.60;99.90
6865;DHT22;3471;49.678;8.388;2024-03-29T00:20:16;8.50;99.90
6865;DHT22;3471;49.678;8.388;2024-03-29T00:22:42;8.50;99.90
6865;DHT22;3471;49.678;8.388;2024-03-29T00:25:14;8.50;99.90
6865;DHT22;3471;49.678;8.388;2024-03-29T00:27:39;8.40;99.90
6865;DHT22;3471;49.678;8.388;2024-03-29T00:30:05;8.50;99.90
6865;DHT22;3471;49.678;8.388;2024-03-29T00:32:31;8.50;99.90
6865;DHT22;3471;49.678;8.388;2024-03-29T00:34:56;8.50;99.90
6865;DHT22;3471;49.678;8.388;2024-03-29T00:37:23;8.50;99.90
6865;DHT22;3471;49.678;8.388;2024-03-29T00:39:50;8.60;99.90
6865;DHT22;3471;49.678;8.388;2024-03-29T00:42:15;8.60;99.90
6865;DHT22;3471;49.678;8.388;2024-03-29T00:44:42;8.60;99.90
6865;DHT22;3471;49.678;8.388;2024-03-29T00:47:09;8.60;99.90
6865;DHT22;3471;49.678;8.388;2024-03-29T00:49:35;8.60;99.90
6865;DHT22;3471;49.678;8.388;2024-03-29T00:52:02;8.50;99.90
6865;DHT22;3471;49.678;8.388;2024-03-29T00:54:27;8.40;99.90
6865;DHT22;3471;49.678;8.388;2024-03-29T00:56:53;8.30;99.90
6865;DHT22;3471;49.678;8.388;2024-03-29T00:59:19;8.30;99.90
6865;DHT22;3471;49.678;8.388;2024-03-29T01:01:45;8.30;99.90
6865;DHT22;3471;49.678;8.388;2024-03-29T01:04:11;8.30;99.90
6865;DHT22;3471;49.678;8.388;2024-03-29T01:06:37;8.30;99.90
6865;DHT22;3471;49.678;8.388;2024-03-29T01:09:03;8.40;99.90
6865;DHT22;3471;49.678;8.388;2024-03-29T01:11:29;8.40;99.90
6865;DHT22;3471;49.678;8.388;2024-03-29T01:13:55;8.50;99.90
6865;DHT22;3471;49.678;8.388;2024-03-29T01:16:21;8.50;99.90
6865;DHT22;3471;49.678;8.388;2024-03-29T01:18:47;8.50;99.90
6865;DHT22;3471;49.678;8.388;2024-03-29T01:21:13;8.50;99.90
6865;DHT22;3471;49.678;8.388;2024-03-29T01:23:39;8.50;99.90
6865;DHT22;3471;49.678;8.388;2024-03-29T01:26:05;8.50;99.90
6865;DHT22;3471;49.678;8.388;2024-03-29T01:28:31;8.50;99.90
6865;DHT22;3471;49.678;8.388;2024-03-29T01:30:57;8.60;99.90
6865;DHT22;3471;49.678;8.388;2024-03-29T01:33:24;8.50;99.90
6865;DHT22;3471;49.678;8.388;2024-03-29T01:35:50;8.60;99.90
6865;DHT22;3471;49.678;8.388;2024-03-29T01:38:15;8.60;99.90
6865;DHT22;3471;49.678;8.388;2024-03-29T01:40:41;8.60;99.90
6865;DHT22;3471;49.678;8.388;2024-03-29T01:43:07;8.60;99.90
6865;DHT22;3471;49.678;8.388;2024-03-29T01:45:35;8.70;99.90
6865;DHT22;3471;49.678;8.388;2024-03-29T01:48:04;8.70;99.90
6865;DHT22;3471;49.678;8.388;2024-03-29T01:50:30;8.70;99.90
6865;DHT22;3471;49.678;8.388;2024-03-29T01:52:56;8.80;99.90
6865;DHT22;3471;49.678;8.388;2024-03-29T01:55:22;8.80;99.90
6865;DHT22;3471;49.678;8.388;2024-03-29T01:57:48;8.80;99.90
6865;DHT22;3471;49.678;8.388;2024-03-29T02:00:14;8.70;99.90
6865;DHT22;3471;49.678;8.388;2024-03-29T02:02:39;8.60;99.90
6865;DHT22;3471;49.678;8.388;2024-03-29T02:05:05;8.60;99.90
6865;DHT22;3471;49.678;8.388;2024-03-29T02:07:31;8.60;99.90
6865;DHT22;3471;49.678;8.388;2024-03-29T02:10:04;8.60;99.90
6865;DHT22;3471;49.678;8.388;2024-03-29T02:12:32;8.60;99.90
6865;DHT22;3471;49.678;8.388;2024-03-29T02:14:58;8.60;99.90
6865;DHT22;3471;49.678;8.388;2024-03-29T02:17:25;8.70;99.90
6865;DHT22;3471;49.678;8.388;2024-03-29T02:19:50;8.70;99.90
6865;DHT22;3471;49.678;8.388;2024-03-29T02:22:17;8.80;99.90
6865;DHT22;3471;49.678;8.388;2024-03-29T02:24:45;8.80;99.90
6865;DHT22;3471;49.678;8.388;2024-03-29T02:27:11;8.90;99.90
6865;DHT22;3471;49.678;8.388;2024-03-29T02:29:36;8.90;99.90
6865;DHT22;3471;49.678;8.388;2024-03-29T02:32:05;9.00;99.90
6865;DHT22;3471;49.678;8.388;2024-03-29T02:34:31;9.00;99.90
6865;DHT22;3471;49.678;8.388;2024-03-29T02:36:56;9.10;99.90
6865;DHT22;3471;49.678;8.388;2024-03-29T02:39:22;9.20;99.90
6865;DHT22;3471;49.678;8.388;2024-03-29T02:41:48;9.20;99.90
6865;DHT22;3471;49.678;8.388;2024-03-29T02:44:14;9.20;99.90
6865;DHT22;3471;49.678;8.388;2024-03-29T02:46:41;9.20;99.90
6865;DHT22;3471;49.678;8.388;2024-03-29T02:49:07;9.20;99.90
6865;DHT22;3471;49.678;8.388;2024-03-29T02:51:33;9.20;99.90
6865;DHT22;3471;49.678;8.388;2024-03-29T02:53:59;9.20;99.90
6865;DHT22;3471;49.678;8.388;2024-03-29T02:56:24;9.30;99.90
6865;DHT22;3471;49.678;8.388;2024-03-29T02:58:51;9.30;99.90
6865;DHT22;3471;49.678;8.388;2024-03-29T03:01:16;9.40;99.90
6865;DHT22;3471;49.678;8.388;2024-03-29T03:03:42;9.40;99.90
6865;DHT22;3471;49.678;8.388;2024-03-29T03:06:08;9.40;99.90
6865;DHT22;3471;49.678;8.388;2024-03-29T03:08:33;9.50;99.90
6865;DHT22;3471;49.678;8.388;2024-03-29T03:11:18;9.60;99.90
6865;DHT22;3471;49.678;8.388;2024-03-29T03:13:43;9.60;99.90
6865;DHT22;3471;49.678;8.388;2024-03-29T03:16:09;9.60;99.90
6865;DHT22;3471;49.678;8.388;2024-03-29T03:18:34;9.60;99.90
6865;DHT22;3471;49.678;8.388;2024-03-29T03:21:00;9.60;99.90
6865;DHT22;3471;49.678;8.388;2024-03-29T03:23:26;9.60;99.90
6865;DHT22;3471;49.678;8.388;2024-03-29T03:25:56;9.60;99.90
6865;DHT22;3471;49.678;8.388;2024-03-29T03:28:22;9.60;99.90
6865;DHT22;3471;49.678;8.388;2024-03-29T03:30:49;9.60;99.90
6865;DHT22;3471;49.678;8.388;2024-03-29T03:33:14;9.60;99.90
6865;DHT22;3471;49.678;8.388;2024-03-29T03:35:44;9.70;99.90
6865;DHT22;3471;49.678;8.388;2024-03-29T03:38:10;9.70;99.90
6865;DHT22;3471;49.678;8.388;2024-03-29T03:40:36;9.70;99.90
6865;DHT22;3471;49.678;8.388;2024-03-29T03:43:02;9.70;99.90
6865;DHT22;3471;49.678;8.388;2024-03-29T03:45:28;9.70;99.90
6865;DHT22;3471;49.678;8.388;2024-03-29T03:47:54;9.80;99.90
6865;DHT22;3471;49.678;8.388;2024-03-29T03:50:20;9.80;99.90
6865;DHT22;3471;49.678;8.388;2024-03-29T03:52:46;9.80;99.90
6865;DHT22;3471;49.678;8.388;2024-03-29T03:55:11;9.90;99.90
6865;DHT22;3471;49.678;8.388;2024-03-29T03:57:37;9.90;99.90
6865;DHT22;3471;49.678;8.388;2024-03-29T04:00:03;9.80;99.90
6865;DHT22;3471;49.678;8.388;2024-03-29T04:02:29;9.80;99.90
6865;DHT22;3471;49.678;8.388;2024-03-29T04:04:54;9.80;99.90
6865;DHT22;3471;49.678;8.388;2024-03-29T04:07:20;9.70;99.90
6865;DHT22;3471;49.678;8.388;2024-03-29T04:09:46;9.80;99.90
6865;DHT22;3471;49.678;8.388;2024-03-29T04:12:11;9.80;99.90
6865;DHT22;3471;49.678;8.388;2024-03-29T04:14:37;9.80;99.90
6865;DHT22;3471;49.678;8.388;2024-03-29T04:17:02;9.80;99.90
6865;DHT22;3471;49.678;8.388;2024-03-29T04:19:28;9.70;99.90
6865;DHT22;3471;49.678;8.388;2024-03-29T04:21:54;9.70;99.90
6865;DHT22;3471;49.678;8.388;2024-03-29T04:24:19;9.70;99.90
6865;DHT22;3471;49.678;8.388;2024-03-29T04:26:45;9.60;99.90
6865;DHT22;3471;49.678;8.388;2024-03-29T04:29:12;9.60;99.90
6865;DHT22;3471;49.678;8.388;2024-03-29T04:31:38;9.60;99.90
6865;DHT22;3471;49.678;8.388;2024-03-29T04:34:03;9.50;99.90
6865;DHT22;3471;49.678;8.388;2024-03-29T04:36:29;9.50;99.90
6865;DHT22;3471;49.678;8.388;2024-03-29T04:38:55;9.50;99.90
6865;DHT22;3471;49.678;8.388;2024-03-29T04:41:20;9.50;99.90
6865;DHT22;3471;49.678;8.388;2024-03-29T04:43:46;9.50;99.90
6865;DHT22;3471;49.678;8.388;2024-03-29T04:46:13;9.50;99.90
6865;DHT22;3471;49.678;8.388;2024-03-29T04:48:40;9.50;99.90
6865;DHT22;3471;49.678;8.388;2024-03-29T04:51:07;9.40;99.90
6865;DHT22;3471;49.678;8.388;2024-03-29T04:53:35;9.40;99.90
6865;DHT22;3471;49.678;8.388;2024-03-29T04:56:00;9.30;99.90
6865;DHT22;3471;49.678;8.388;2024-03-29T04:58:26;9.30;99.90
6865;DHT22;3471;49.678;8.388;2024-03-29T05:00:52;9.40;99.90
6865;DHT22;3471;49.678;8.388;2024-03-29T05:03:19;9.40;99.90
6865;DHT22;3471;49.678;8.388;2024-03-29T05:05:45;9.40;99.90
6865;DHT22;3471;49.678;8.388;2024-03-29T05:08:11;9.50;99.90
6865;DHT22;3471;49.678;8.388;2024-03-29T05:10:37;9.50;99.90
6865;DHT22;3471;49.678;8.388;2024-03-29T05:13:03;9.50;99.90
6865;DHT22;3471;49.678;8.388;2024-03-29T05:15:29;9.60;99.90
6865;DHT22;3471;49.678;8.388;2024-03-29T05:17:54;9.60;99.90
6865;DHT22;3471;49.678;8.388;2024-03-29T05:20:20;9.60;99.90
6865;DHT22;3471;49.678;8.388;2024-03-29T05:22:45;9.60;99.90
6865;DHT22;3471;49.678;8.388;2024-03-29T05:25:11;9.60;99.90
6865;DHT22;3471;49.678;8.388;2024-03-29T05:27:36;9.60;99.90
6865;DHT22;3471;49.678;8.388;2024-03-29T05:30:03;9.60;99.90
6865;DHT22;3471;49.678;8.388;2024-03-29T05:32:29;9.60;99.90
6865;DHT22;3471;49.678;8.388;2024-03-29T05:34:55;9.60;99.90
6865;DHT22;3471;49.678;8.388;2024-03-29T05:37:20;9.50;99.90
6865;DHT22;3471;49.678;8.388;2024-03-29T05:39:47;9.50;99.90
6865;DHT22;3471;49.678;8.388;2024-03-29T05:42:13;9.50;99.90
6865;DHT22;3471;49.678;8.388;2024-03-29T05:44:38;9.50;99.90
6865;DHT22;3471;49.678;8.388;2024-03-29T05:47:04;9.50;99.90
6865;DHT22;3471;49.678;8.388;2024-03-29T05:49:32;9.60;99.90
6865;DHT22;3471;49.678;8.388;2024-03-29T05:51:58;9.60;99.90
6865;DHT22;3471;49.678;8.388;2024-03-29T05:54:24;9.60;99.90
6865;DHT22;3471;49.678;8.388;2024-03-29T05:56:50;9.60;99.90
6865;DHT22;3471;49.678;8.388;2024-03-29T05:59:15;9.60;99.90
6865;DHT22;3471;49.678;8.388;2024-03-29T06:01:41;9.70;99.90
6865;DHT22;3471;49.678;8.388;2024-03-29T06:04:07;9.70;99.90
6865;DHT22;3471;49.678;8.388;2024-03-29T06:06:41;9.80;99.90
6865;DHT22;3471;49.678;8.388;2024-03-29T06:09:06;9.80;99.90
6865;DHT22;3471;49.678;8.388;2024-03-29T06:11:32;9.80;99.90
6865;DHT22;3471;49.678;8.388;2024-03-29T06:13:57;9.80;99.90
6865;DHT22;3471;49.678;8.388;2024-03-29T06:16:25;9.90;99.90
6865;DHT22;3471;49.678;8.388;2024-03-29T06:19:10;9.90;99.90
6865;DHT22;3471;49.678;8.388;2024-03-29T06:21:35;9.90;99.90
6865;DHT22;3471;49.678;8.388;2024-03-29T06:24:09;9.90;99.90
6865;DHT22;3471;49.678;8.388;2024-03-29T06:26:38;9.90;99.90
6865;DHT22;3471;49.678;8.388;2024-03-29T06:29:03;10.00;99.90
6865;DHT22;3471;49.678;8.388;2024-03-29T06:31:29;10.00;99.90
6865;DHT22;3471;49.678;8.388;2024-03-29T06:33:56;10.00;99.90
6865;DHT22;3471;49.678;8.388;2024-03-29T06:36:23;9.90;99.90
6865;DHT22;3471;49.678;8.388;2024-03-29T06:38:49;10.00;99.90
6865;DHT22;3471;49.678;8.388;2024-03-29T06:41:14;9.90;99.90
6865;DHT22;3471;49.678;8.388;2024-03-29T06:43:42;9.90;99.90
6865;DHT22;3471;49.678;8.388;2024-03-29T06:46:10;9.90;99.90
6865;DHT22;3471;49.678;8.388;2024-03-29T06:48:35;10.00;99.90
6865;DHT22;3471;49.678;8.388;2024-03-29T06:51:02;10.00;99.90
6865;DHT22;3471;49.678;8.388;2024-03-29T06:53:28;10.00;99.90
6865;DHT22;3471;49.678;8.388;2024-03-29T06:55:55;10.00;99.90
6865;DHT22;3471;49.678;8.388;2024-03-29T06:58:24;10.10;99.90
6865;DHT22;3471;49.678;8.388;2024-03-29T07:00:50;10.10;99.90
6865;DHT22;3471;49.678;8.388;2024-03-29T07:03:16;10.20;99.90
6865;DHT22;3471;49.678;8.388;2024-03-29T07:05:48;10.20;99.90
6865;DHT22;3471;49.678;8.388;2024-03-29T07:08:13;10.30;99.90
6865;DHT22;3471;49.678;8.388;2024-03-29T07:10:39;10.40;99.90
6865;DHT22;3471;49.678;8.388;2024-03-29T07:13:06;10.50;99.90
6865;DHT22;3471;49.678;8.388;2024-03-29T07:15:32;10.50;99.90
6865;DHT22;3471;49.678;8.388;2024-03-29T07:17:58;10.60;99.90
6865;DHT22;3471;49.678;8.388;2024-03-29T07:20:25;10.60;99.90
6865;DHT22;3471;49.678;8.388;2024-03-29T07:22:50;10.60;99.90
6865;DHT22;3471;49.678;8.388;2024-03-29T07:25:16;10.60;99.90
6865;DHT22;3471;49.678;8.388;2024-03-29T07:27:41;10.70;99.90
6865;DHT22;3471;49.678;8.388;2024-03-29T07:30:07;10.70;99.90
6865;DHT22;3471;49.678;8.388;2024-03-29T07:32:34;10.80;99.90
6865;DHT22;3471;49.678;8.388;2024-03-29T07:35:00;10.80;99.90
6865;DHT22;3471;49.678;8.388;2024-03-29T07:37:25;10.90;99.90
6865;DHT22;3471;49.678;8.388;2024-03-29T07:39:51;10.90;99.90
6865;DHT22;3471;49.678;8.388;2024-03-29T07:42:17;11.00;99.90
6865;DHT22;3471;49.678;8.388;2024-03-29T07:44:42;11.10;99.90
6865;DHT22;3471;49.678;8.388;2024-03-29T07:47:08;11.10;99.90
6865;DHT22;3471;49.678;8.388;2024-03-29T07:49:34;11.20;99.90
6865;DHT22;3471;49.678;8.388;2024-03-29T07:51:59;11.20;99.90
6865;DHT22;3471;49.678;8.388;2024-03-29T07:54:27;11.20;99.90
6865;DHT22;3471;49.678;8.388;2024-03-29T07:56:53;11.20;99.90
6865;DHT22;3471;49.678;8.388;2024-03-29T07:59:19;11.30;99.90
6865;DHT22;3471;49.678;8.388;2024-03-29T08:01:45;11.30;99.90
6865;DHT22;3471;49.678;8.388;2024-03-29T08:04:11;11.30;99.90
6865;DHT22;3471;49.678;8.388;2024-03-29T08:06:36;11.30;99.90
6865;DHT22;3471;49.678;8.388;2024-03-29T08:09:02;11.40;99.90
6865;DHT22;3471;49.678;8.388;2024-03-29T08:11:27;11.40;99.90
6865;DHT22;3471;49.678;8.388;2024-03-29T08:13:53;11.40;99.90
6865;DHT22;3471;49.678;8.388;2024-03-29T08:16:18;11.40;99.90
6865;DHT22;3471;49.678;8.388;2024-03-29T08:18:46;11.50;99.90
6865;DHT22;3471;49.678;8.388;2024-03-29T08:21:12;11.50;99.90
6865;DHT22;3471;49.678;8.388;2024-03-29T08:23:39;11.50;99.90
6865;DHT22;3471;49.678;8.388;2024-03-29T08:26:05;11.50;99.90
6865;DHT22;3471;49.678;8.388;2024-03-29T08:28:31;11.50;99.90
6865;DHT22;3471;49.678;8.388;2024-03-29T08:31:01;11.60;99.90
6865;DHT22;3471;49.678;8.388;2024-03-29T08:33:26;11.60;99.90
6865;DHT22;3471;49.678;8.388;2024-03-29T08:35:52;11.50;99.90
6865;DHT22;3471;49.678;8.388;2024-03-29T08:38:18;11.60;99.90
6865;DHT22;3471;49.678;8.388;2024-03-29T08:40:43;11.60;99.90
6865;DHT22;3471;49.678;8.388;2024-03-29T08:43:12;11.70;99.90
6865;DHT22;3471;49.678;8.388;2024-03-29T08:45:37;11.70;99.90
6865;DHT22;3471;49.678;8.388;2024-03-29T08:48:09;11.70;99.90
6865;DHT22;3471;49.678;8.388;2024-03-29T08:50:36;11.70;99.90
6865;DHT22;3471;49.678;8.388;2024-03-29T08:53:02;11.70;99.90
6865;DHT22;3471;49.678;8.388;2024-03-29T08:55:32;11.60;99.90
6865;DHT22;3471;49.678;8.388;2024-03-29T08:57:58;11.60;99.90
6865;DHT22;3471;49.678;8.388;2024-03-29T09:00:28;11.60;99.90
6865;DHT22;3471;49.678;8.388;2024-03-29T09:02:54;11.60;99.90
6865;DHT22;3471;49.678;8.388;2024-03-29T09:05:20;11.60;99.90
6865;DHT22;3471;49.678;8.388;2024-03-29T09:07:45;11.60;99.90
6865;DHT22;3471;49.678;8.388;2024-03-29T09:10:12;11.60;99.90
6865;DHT22;3471;49.678;8.388;2024-03-29T09:12:38;11.60;99.90
6865;DHT22;3471;49.678;8.388;2024-03-29T09:15:04;11.60;99.90
6865;DHT22;3471;49.678;8.388;2024-03-29T09:17:34;11.60;99.90
6865;DHT22;3471;49.678;8.388;2024-03-29T09:20:00;11.60;99.90
6865;DHT22;3471;49.678;8.388;2024-03-29T09:22:25;11.50;99.90
6865;DHT22;3471;49.678;8.388;2024-03-29T09:24:51;11.40;99.90
6865;DHT22;3471;49.678;8.388;2024-03-29T09:27:16;11.20;99.90
6865;DHT22;3471;49.678;8.388;2024-03-29T09:29:42;11.10;99.90
6865;DHT22;3471;49.678;8.388;2024-03-29T09:32:08;10.90;99.90
6865;DHT22;3471;49.678;8.388;2024-03-29T09:34:34;10.80;99.90
6865;DHT22;3471;49.678;8.388;2024-03-29T09:37:00;10.80;99.90
6865;DHT22;3471;49.678;8.388;2024-03-29T09:39:25;10.70;99.90
6865;DHT22;3471;49.678;8.388;2024-03-29T09:41:51;10.70;99.90
6865;DHT22;3471;49.678;8.388;2024-03-29T09:44:19;10.60;99.90
6865;DHT22;3471;49.678;8.388;2024-03-29T09:46:47;10.60;99.90
6865;DHT22;3471;49.678;8.388;2024-03-29T09:49:13;10.50;99.90
6865;DHT22;3471;49.678;8.388;2024-03-29T09:51:40;10.40;99.90
6865;DHT22;3471;49.678;8.388;2024-03-29T09:54:08;10.30;99.90
6865;DHT22;3471;49.678;8.388;2024-03-29T09:56:37;10.30;99.90
6865;DHT22;3471;49.678;8.388;2024-03-29T09:59:03;10.30;99.90
6865;DHT22;3471;49.678;8.388;2024-03-29T10:01:30;10.20;99.90
6865;DHT22;3471;49.678;8.388;2024-03-29T10:03:56;10.10;99.90
6865;DHT22;3471;49.678;8.388;2024-03-29T10:06:24;10.00;99.90
6865;DHT22;3471;49.678;8.388;2024-03-29T10:08:50;10.00;99.90
6865;DHT22;3471;49.678;8.388;2024-03-29T10:11:16;10.00;99.90
6865;DHT22;3471;49.678;8.388;2024-03-29T10:13:43;10.00;99.90
6865;DHT22;3471;49.678;8.388;2024-03-29T10:16:11;10.00;99.90
6865;DHT22;3471;49.678;8.388;2024-03-29T10:18:40;9.90;99.90
6865;DHT22;3471;49.678;8.388;2024-03-29T10:21:07;9.90;99.90
6865;DHT22;3471;49.678;8.388;2024-03-29T10:23:33;10.00;99.90
6865;DHT22;3471;49.678;8.388;2024-03-29T10:26:00;9.90;99.90
6865;DHT22;3471;49.678;8.388;2024-03-29T10:28:31;10.00;99.90
6865;DHT22;3471;49.678;8.388;2024-03-29T10:30:58;10.10;99.90
6865;DHT22;3471;49.678;8.388;2024-03-29T10:33:28;10.20;99.90
6865;DHT22;3471;49.678;8.388;2024-03-29T10:35:54;10.40;99.90
6865;DHT22;3471;49.678;8.388;2024-03-29T10:38:28;10.40;99.90
6865;DHT22;3471;49.678;8.388;2024-03-29T10:40:54;10.70;99.90
6865;DHT22;3471;49.678;8.388;2024-03-29T10:43:20;10.80;99.90
6865;DHT22;3471;49.678;8.388;2024-03-29T10:45:49;10.90;99.90
6865;DHT22;3471;49.678;8.388;2024-03-29T10:48:20;11.10;99.90
6865;DHT22;3471;49.678;8.388;2024-03-29T10:50:47;11.20;99.90
6865;DHT22;3471;49.678;8.388;2024-03-29T10:53:13;11.40;99.90
6865;DHT22;3471;49.678;8.388;2024-03-29T10:55:42;11.90;99.90
6865;DHT22;3471;49.678;8.388;2024-03-29T10:58:11;12.40;99.90
6865;DHT22;3471;49.678;8.388;2024-03-29T11:00:46;12.80;99.90
6865;DHT22;3471;49.678;8.388;2024-03-29T11:03:22;13.20;99.90
6865;DHT22;3471;49.678;8.388;2024-03-29T11:05:50;13.50;99.90
6865;DHT22;3471;49.678;8.388;2024-03-29T11:08:23;13.60;99.90
6865;DHT22;3471;49.678;8.388;2024-03-29T11:10:51;13.60;99.90
6865;DHT22;3471;49.678;8.388;2024-03-29T11:15:47;13.50;99.90
6865;DHT22;3471;49.678;8.388;2024-03-29T11:18:14;13.30;99.90
6865;DHT22;3471;49.678;8.388;2024-03-29T11:20:47;13.10;99.90
6865;DHT22;3471;49.678;8.388;2024-03-29T11:23:17;13.00;99.90
6865;DHT22;3471;49.678;8.388;2024-03-29T11:28:14;12.80;99.90
6865;DHT22;3471;49.678;8.388;2024-03-29T11:30:45;12.70;99.90
6865;DHT22;3471;49.678;8.388;2024-03-29T11:36:05;12.70;99.90
6865;DHT22;3471;49.678;8.388;2024-03-29T11:38:35;12.60;99.90
6865;DHT22;3471;49.678;8.388;2024-03-29T11:41:05;12.60;99.90
6865;DHT22;3471;49.678;8.388;2024-03-29T11:43:32;12.70;99.90
6865;DHT22;3471;49.678;8.388;2024-03-29T11:45:59;12.80;99.90
6865;DHT22;3471;49.678;8.388;2024-03-29T11:48:27;12.80;99.90
6865;DHT22;3471;49.678;8.388;2024-03-29T11:50:54;12.90;99.90
6865;DHT22;3471;49.678;8.388;2024-03-29T11:53:20;12.80;99.90
6865;DHT22;3471;49.678;8.388;2024-03-29T11:55:47;13.00;99.90
6865;DHT22;3471;49.678;8.388;2024-03-29T11:58:19;13.00;99.90
6865;DHT22;3471;49.678;8.388;2024-03-29T12:00:45;13.10;99.90
6865;DHT22;3471;49.678;8.388;2024-03-29T12:03:13;13.10;99.90
6865;DHT22;3471;49.678;8.388;2024-03-29T12:05:38;13.20;99.90
6865;DHT22;3471;49.678;8.388;2024-03-29T12:08:04;13.30;99.90
6865;DHT22;3471;49.678;8.388;2024-03-29T12:10:31;13.30;99.90
6865;DHT22;3471;49.678;8.388;2024-03-29T12:12:57;13.40;99.90
6865;DHT22;3471;49.678;8.388;2024-03-29T12:15:28;13.40;99.90
6865;DHT22;3471;49.678;8.388;2024-03-29T12:18:04;13.50;99.90
6865;DHT22;3471;49.678;8.388;2024-03-29T12:20:31;13.60;99.90
6865;DHT22;3471;49.678;8.388;2024-03-29T12:23:01;13.60;99.90
6865;DHT22;3471;49.678;8.388;2024-03-29T12:25:28;13.50;99.90
6865;DHT22;3471;49.678;8.388;2024-03-29T12:27:54;13.70;99.90
6865;DHT22;3471;49.678;8.388;2024-03-29T12:30:20;13.60;99.90
6865;DHT22;3471;49.678;8.388;2024-03-29T12:32:45;13.60;99.90
6865;DHT22;3471;49.678;8.388;2024-03-29T12:35:15;13.60;99.90
6865;DHT22;3471;49.678;8.388;2024-03-29T12:37:50;13.60;99.90
6865;DHT22;3471;49.678;8.388;2024-03-29T12:40:17;13.50;99.90
6865;DHT22;3471;49.678;8.388;2024-03-29T12:42:48;13.60;99.90
6865;DHT22;3471;49.678;8.388;2024-03-29T12:45:14;13.70;99.90
6865;DHT22;3471;49.678;8.388;2024-03-29T12:47:40;13.70;99.90
6865;DHT22;3471;49.678;8.388;2024-03-29T12:50:32;13.70;99.90
6865;DHT22;3471;49.678;8.388;2024-03-29T12:52:59;13.80;99.90
6865;DHT22;3471;49.678;8.388;2024-03-29T12:55:27;13.90;99.90
6865;DHT22;3471;49.678;8.388;2024-03-29T12:58:05;13.90;99.90
6865;DHT22;3471;49.678;8.388;2024-03-29T13:00:34;13.90;99.90
6865;DHT22;3471;49.678;8.388;2024-03-29T13:02:59;13.70;99.90
6865;DHT22;3471;49.678;8.388;2024-03-29T13:05:26;13.60;99.90
6865;DHT22;3471;49.678;8.388;2024-03-29T13:07:53;13.60;99.90
6865;DHT22;3471;49.678;8.388;2024-03-29T13:10:18;13.60;99.90
6865;DHT22;3471;49.678;8.388;2024-03-29T13:12:47;13.60;99.90
6865;DHT22;3471;49.678;8.388;2024-03-29T13:17:42;13.60;99.90
6865;DHT22;3471;49.678;8.388;2024-03-29T13:20:08;13.60;99.90
6865;DHT22;3471;49.678;8.388;2024-03-29T13:22:35;13.60;99.90
6865;DHT22;3471;49.678;8.388;2024-03-29T13:25:01;13.60;99.90
6865;DHT22;3471;49.678;8.388;2024-03-29T13:27:26;13.60;99.90
6865;DHT22;3471;49.678;8.388;2024-03-29T13:29:52;13.60;99.90
6865;DHT22;3471;49.678;8.388;2024-03-29T13:32:18;13.50;99.90
6865;DHT22;3471;49.678;8.388;2024-03-29T13:34:43;13.40;99.90
6865;DHT22;3471;49.678;8.388;2024-03-29T13:37:09;13.40;99.90
6865;DHT22;3471;49.678;8.388;2024-03-29T13:39:35;13.30;99.90
6865;DHT22;3471;49.678;8.388;2024-03-29T13:42:00;13.20;99.90
6865;DHT22;3471;49.678;8.388;2024-03-29T13:44:26;13.20;99.90
6865;DHT22;3471;49.678;8.388;2024-03-29T13:46:51;13.30;99.90
6865;DHT22;3471;49.678;8.388;2024-03-29T13:49:17;13.30;99.90
6865;DHT22;3471;49.678;8.388;2024-03-29T13:51:46;13.20;99.90
6865;DHT22;3471;49.678;8.388;2024-03-29T13:54:12;13.30;99.90
6865;DHT22;3471;49.678;8.388;2024-03-29T13:56:38;13.30;99.90
6865;DHT22;3471;49.678;8.388;2024-03-29T13:59:03;13.30;99.90
6865;DHT22;3471;49.678;8.388;2024-03-29T14:01:29;13.30;99.90
6865;DHT22;3471;49.678;8.388;2024-03-29T14:03:54;13.10;99.90
6865;DHT22;3471;49.678;8.388;2024-03-29T14:06:21;13.00;99.90
6865;DHT22;3471;49.678;8.388;2024-03-29T14:08:46;13.00;99.90
6865;DHT22;3471;49.678;8.388;2024-03-29T14:11:12;12.90;99.90
6865;DHT22;3471;49.678;8.388;2024-03-29T14:13:39;12.80;99.90
6865;DHT22;3471;49.678;8.388;2024-03-29T14:16:05;12.70;99.90
6865;DHT22;3471;49.678;8.388;2024-03-29T14:18:30;12.70;99.90
6865;DHT22;3471;49.678;8.388;2024-03-29T14:20:57;12.60;99.90
6865;DHT22;3471;49.678;8.388;2024-03-29T14:23:23;12.70;99.90
6865;DHT22;3471;49.678;8.388;2024-03-29T14:25:51;12.80;99.90
6865;DHT22;3471;49.678;8.388;2024-03-29T14:28:16;12.90;99.90
6865;DHT22;3471;49.678;8.388;2024-03-29T14:30:42;13.10;99.90
6865;DHT22;3471;49.678;8.388;2024-03-29T14:33:07;13.10;99.90
6865;DHT22;3471;49.678;8.388;2024-03-29T14:35:34;13.20;99.90
6865;DHT22;3471;49.678;8.388;2024-03-29T14:38:00;13.30;99.90
6865;DHT22;3471;49.678;8.388;2024-03-29T14:40:26;13.30;99.90
6865;DHT22;3471;49.678;8.388;2024-03-29T14:42:52;13.30;99.90
6865;DHT22;3471;49.678;8.388;2024-03-29T14:45:20;13.20;99.90
6865;DHT22;3471;49.678;8.388;2024-03-29T14:47:46;13.20;99.90
6865;DHT22;3471;49.678;8.388;2024-03-29T14:50:11;13.20;99.90
6865;DHT22;3471;49.678;8.388;2024-03-29T14:52:37;13.20;99.90
6865;DHT22;3471;49.678;8.388;2024-03-29T14:55:03;13.30;99.90
6865;DHT22;3471;49.678;8.388;2024-03-29T14:57:38;13.30;99.90
6865;DHT22;3471;49.678;8.388;2024-03-29T15:00:05;13.30;99.90
6865;DHT22;3471;49.678;8.388;2024-03-29T15:02:31;13.40;99.90
6865;DHT22;3471;49.678;8.388;2024-03-29T15:04:58;13.50;99.90
6865;DHT22;3471;49.678;8.388;2024-03-29T15:07:24;13.60;99.90
6865;DHT22;3471;49.678;8.388;2024-03-29T15:09:50;13.60;99.90
6865;DHT22;3471;49.678;8.388;2024-03-29T15:12:16;13.70;99.90
6865;DHT22;3471;49.678;8.388;2024-03-29T15:14:42;13.80;99.90
6865;DHT22;3471;49.678;8.388;2024-03-29T15:17:08;13.70;99.90
6865;DHT22;3471;49.678;8.388;2024-03-29T15:19:34;13.70;99.90
6865;DHT22;3471;49.678;8.388;2024-03-29T15:21:59;13.50;99.90
6865;DHT22;3471;49.678;8.388;2024-03-29T15:24:25;13.40;99.90
6865;DHT22;3471;49.678;8.388;2024-03-29T15:26:51;13.30;99.90
6865;DHT22;3471;49.678;8.388;2024-03-29T15:29:24;13.40;99.90
6865;DHT22;3471;49.678;8.388;2024-03-29T15:31:50;13.50;99.90
6865;DHT22;3471;49.678;8.388;2024-03-29T15:34:15;13.30;99.90
6865;DHT22;3471;49.678;8.388;2024-03-29T15:36:41;13.20;99.90
6865;DHT22;3471;49.678;8.388;2024-03-29T15:39:06;13.20;99.90
6865;DHT22;3471;49.678;8.388;2024-03-29T15:41:34;13.30;99.90
6865;DHT22;3471;49.678;8.388;2024-03-29T15:44:01;13.10;99.90
6865;DHT22;3471;49.678;8.388;2024-03-29T15:46:27;13.30;99.90
6865;DHT22;3471;49.678;8.388;2024-03-29T15:48:53;13.50;99.90
6865;DHT22;3471;49.678;8.388;2024-03-29T15:51:19;13.60;99.90
6865;DHT22;3471;49.678;8.388;2024-03-29T15:53:45;14.00;99.90
6865;DHT22;3471;49.678;8.388;2024-03-29T15:56:10;14.70;99.90
6865;DHT22;3471;49.678;8.388;2024-03-29T15:58:36;15.40;99.90
6865;DHT22;3471;49.678;8.388;2024-03-29T16:01:05;15.70;99.90
6865;DHT22;3471;49.678;8.388;2024-03-29T16:03:30;16.00;99.90
6865;DHT22;3471;49.678;8.388;2024-03-29T16:05:57;16.20;99.90
6865;DHT22;3471;49.678;8.388;2024-03-29T16:08:23;16.30;99.90
6865;DHT22;3471;49.678;8.388;2024-03-29T16:13:21;16.60;99.90
6865;DHT22;3471;49.678;8.388;2024-03-29T16:15:48;16.70;99.90
6865;DHT22;3471;49.678;8.388;2024-03-29T16:18:14;16.60;99.90